FMMI

Ivato Airport

Antananarivo, Madagascar
METAR FMMI 151830Z VRB01KT 9999 VCTS SCT017CB 21/18 Q1021 NOSIG
Observed Flight Rules
Feb-15 @ 18:30 UTC (38 minutes ago) Visual Flight Rules
Wind Visibility Clouds Conditions
Variable at 1 knots 10,000+ meters
  • Scattered at 1,700' AGL
  • Area Thunderstorm
Temperatures Readings
Current 21°C / 70°F
Dewpoint 18°C / 64°F
Humidity 83%
Altimeter 30.15" Hg
Pressure 1020.92 hPa
Elevation 1276
METAR FMMI 151830Z VRB01KT 9999 VCTS SCT017CB 21/18 Q1021 NOSIG
Observed Flight Rules
Feb-15 @ 18:30 UTC
(38 minutes ago)
VFR
Wind Visibility
Variable at 1 knots 10,000+ meters
Clouds
  • Scattered at 1,700' AGL
Conditions
  • Area Thunderstorm
Temperature Dewpoint
21°C / 70°F 18°C / 64°F
Humidity Altimeter Pressure
83% 30.15" Hg 1020.92 hPa